sensor_id;sensor_type;location;lat;lon;timestamp;pressure;altitude;pressure_sealevel;temperature;humidity
69909;BME280;57190;47.918;8.112;2023-09-08T00:01:52;91303.59;;;17.00;86.03
69909;BME280;57190;47.918;8.112;2023-09-08T00:04:18;91300.00;;;17.05;86.19
69909;BME280;57190;47.918;8.112;2023-09-08T00:06:44;91300.00;;;17.05;86.12
69909;BME280;57190;47.918;8.112;2023-09-08T00:09:11;91298.00;;;16.96;85.97
69909;BME280;57190;47.918;8.112;2023-09-08T00:11:36;91304.47;;;16.95;86.22
69909;BME280;57190;47.918;8.112;2023-09-08T00:14:02;91304.47;;;16.95;86.55
69909;BME280;57190;47.918;8.112;2023-09-08T00:16:29;91300.19;;;16.94;86.64
69909;BME280;57190;47.918;8.112;2023-09-08T00:18:55;91295.09;;;16.93;86.75
69909;BME280;57190;47.918;8.112;2023-09-08T00:21:22;91289.06;;;16.82;86.60
69909;BME280;57190;47.918;8.112;2023-09-08T00:23:48;91292.13;;;16.75;86.94
69909;BME280;57190;47.918;8.112;2023-09-08T00:26:13;91292.13;;;16.75;87.06
69909;BME280;57190;47.918;8.112;2023-09-08T00:28:39;91288.31;;;16.76;86.74
69909;BME280;57190;47.918;8.112;2023-09-08T00:31:04;91286.72;;;16.75;86.74
69909;BME280;57190;47.918;8.112;2023-09-08T00:33:30;91296.41;;;16.76;87.16
69909;BME280;57190;47.918;8.112;2023-09-08T00:35:56;91286.63;;;16.80;87.35
69909;BME280;57190;47.918;8.112;2023-09-08T00:38:23;91284.75;;;16.81;86.74
69909;BME280;57190;47.918;8.112;2023-09-08T00:40:48;91294.72;;;16.80;87.15
69909;BME280;57190;47.918;8.112;2023-09-08T00:43:14;91288.44;;;16.85;86.68
69909;BME280;57190;47.918;8.112;2023-09-08T00:45:41;91283.66;;;16.82;86.76
69909;BME280;57190;47.918;8.112;2023-09-08T00:48:08;91290.03;;;16.86;86.68
69909;BME280;57190;47.918;8.112;2023-09-08T00:50:36;91285.47;;;16.87;87.34
69909;BME280;57190;47.918;8.112;2023-09-08T00:53:05;91285.53;;;16.81;87.13
69909;BME280;57190;47.918;8.112;2023-09-08T00:55:32;91293.78;;;16.71;86.69
69909;BME280;57190;47.918;8.112;2023-09-08T00:57:58;91287.69;;;16.65;87.17
69909;BME280;57190;47.918;8.112;2023-09-08T01:00:27;91291.47;;;16.64;87.41
69909;BME280;57190;47.918;8.112;2023-09-08T01:02:52;91288.47;;;16.66;87.47
69909;BME280;57190;47.918;8.112;2023-09-08T01:05:19;91279.69;;;16.60;86.87
69909;BME280;57190;47.918;8.112;2023-09-08T01:07:45;91287.91;;;16.50;86.82
69909;BME280;57190;47.918;8.112;2023-09-08T01:10:11;91284.00;;;16.42;87.55
69909;BME280;57190;47.918;8.112;2023-09-08T01:12:37;91284.31;;;16.41;87.25
69909;BME280;57190;47.918;8.112;2023-09-08T01:15:04;91277.31;;;16.40;87.52
69909;BME280;57190;47.918;8.112;2023-09-08T01:17:36;91276.72;;;16.43;87.99
69909;BME280;57190;47.918;8.112;2023-09-08T01:20:06;91280.00;;;16.40;87.81
69909;BME280;57190;47.918;8.112;2023-09-08T01:23:01;91281.97;;;16.34;87.80
69909;BME280;57190;47.918;8.112;2023-09-08T01:25:29;91273.38;;;16.32;87.47
69909;BME280;57190;47.918;8.112;2023-09-08T01:27:58;91277.38;;;16.34;87.84
69909;BME280;57190;47.918;8.112;2023-09-08T01:30:26;91279.78;;;16.36;88.11
69909;BME280;57190;47.918;8.112;2023-09-08T01:32:54;91277.59;;;16.38;87.75
69909;BME280;57190;47.918;8.112;2023-09-08T01:35:19;91275.50;;;16.35;88.11
69909;BME280;57190;47.918;8.112;2023-09-08T01:37:47;91276.38;;;16.30;87.66
69909;BME280;57190;47.918;8.112;2023-09-08T01:40:13;91274.84;;;16.24;87.57
69909;BME280;57190;47.918;8.112;2023-09-08T01:42:39;91268.06;;;16.27;87.78
69909;BME280;57190;47.918;8.112;2023-09-08T01:45:05;91274.25;;;16.27;87.48
69909;BME280;57190;47.918;8.112;2023-09-08T01:47:31;91270.03;;;16.21;87.21
69909;BME280;57190;47.918;8.112;2023-09-08T01:49:57;91265.81;;;16.15;87.38
69909;BME280;57190;47.918;8.112;2023-09-08T01:52:23;91262.84;;;16.16;87.51
69909;BME280;57190;47.918;8.112;2023-09-08T01:54:49;91267.41;;;16.16;86.97
69909;BME280;57190;47.918;8.112;2023-09-08T01:57:14;91261.59;;;16.09;86.39
69909;BME280;57190;47.918;8.112;2023-09-08T01:59:40;91258.97;;;16.03;86.88
69909;BME280;57190;47.918;8.112;2023-09-08T02:02:05;91258.97;;;16.03;86.79
69909;BME280;57190;47.918;8.112;2023-09-08T02:04:32;91254.97;;;16.01;86.64
69909;BME280;57190;47.918;8.112;2023-09-08T02:06:57;91255.50;;;16.03;86.35
69909;BME280;57190;47.918;8.112;2023-09-08T02:09:33;91258.97;;;16.03;86.88
69909;BME280;57190;47.918;8.112;2023-09-08T02:11:59;91257.06;;;16.04;86.86
69909;BME280;57190;47.918;8.112;2023-09-08T02:14:25;91264.44;;;15.98;87.12
69909;BME280;57190;47.918;8.112;2023-09-08T02:16:51;91254.34;;;15.90;86.98
69909;BME280;57190;47.918;8.112;2023-09-08T02:19:16;91252.78;;;15.84;86.97
69909;BME280;57190;47.918;8.112;2023-09-08T02:21:42;91263.88;;;15.77;87.15
69909;BME280;57190;47.918;8.112;2023-09-08T02:24:07;91259.00;;;15.79;86.96
69909;BME280;57190;47.918;8.112;2023-09-08T02:26:33;91251.75;;;15.80;86.92
69909;BME280;57190;47.918;8.112;2023-09-08T02:28:59;91253.38;;;15.76;87.36
69909;BME280;57190;47.918;8.112;2023-09-08T02:31:26;91252.53;;;15.80;87.61
69909;BME280;57190;47.918;8.112;2023-09-08T02:33:52;91255.22;;;15.80;87.41
69909;BME280;57190;47.918;8.112;2023-09-08T02:36:17;91250.34;;;15.82;87.51
69909;BME280;57190;47.918;8.112;2023-09-08T02:38:43;91254.13;;;15.81;87.94
69909;BME280;57190;47.918;8.112;2023-09-08T02:41:08;91253.91;;;15.78;87.41
69909;BME280;57190;47.918;8.112;2023-09-08T02:43:34;91255.00;;;15.77;87.44
69909;BME280;57190;47.918;8.112;2023-09-08T02:45:59;91257.97;;;15.75;88.10
69909;BME280;57190;47.918;8.112;2023-09-08T02:48:25;91252.81;;;15.79;88.10
69909;BME280;57190;47.918;8.112;2023-09-08T02:50:50;91260.97;;;15.74;88.14
69909;BME280;57190;47.918;8.112;2023-09-08T02:53:16;91258.28;;;15.74;87.95
69909;BME280;57190;47.918;8.112;2023-09-08T02:55:41;91259.84;;;15.75;88.18
69909;BME280;57190;47.918;8.112;2023-09-08T02:58:07;91251.28;;;15.72;88.12
69909;BME280;57190;47.918;8.112;2023-09-08T03:00:32;91254.03;;;15.67;88.03
69909;BME280;57190;47.918;8.112;2023-09-08T03:02:58;91250.66;;;15.56;87.93
69909;BME280;57190;47.918;8.112;2023-09-08T03:05:23;91252.09;;;15.49;87.67
69909;BME280;57190;47.918;8.112;2023-09-08T03:07:49;91253.78;;;15.45;87.65
69909;BME280;57190;47.918;8.112;2023-09-08T03:10:14;91253.69;;;15.50;87.67
69909;BME280;57190;47.918;8.112;2023-09-08T03:12:41;91261.19;;;15.53;87.45
69909;BME280;57190;47.918;8.112;2023-09-08T03:15:07;91259.78;;;15.61;88.64
69909;BME280;57190;47.918;8.112;2023-09-08T03:17:33;91263.69;;;15.68;87.85
69909;BME280;57190;47.918;8.112;2023-09-08T03:19:58;91259.41;;;15.67;88.53
69909;BME280;57190;47.918;8.112;2023-09-08T03:22:24;91259.47;;;15.62;88.45
69909;BME280;57190;47.918;8.112;2023-09-08T03:24:59;91261.13;;;15.58;88.81
69909;BME280;57190;47.918;8.112;2023-09-08T03:27:24;91262.25;;;15.57;89.29
69909;BME280;57190;47.918;8.112;2023-09-08T03:29:50;91253.94;;;15.53;89.21
69909;BME280;57190;47.918;8.112;2023-09-08T03:32:15;91254.19;;;15.57;89.18
69909;BME280;57190;47.918;8.112;2023-09-08T03:34:41;91253.13;;;15.53;88.64
69909;BME280;57190;47.918;8.112;2023-09-08T03:37:06;91258.50;;;15.53;89.27
69909;BME280;57190;47.918;8.112;2023-09-08T03:39:32;91259.56;;;15.57;88.84
69909;BME280;57190;47.918;8.112;2023-09-08T03:41:57;91253.66;;;15.55;88.57
69909;BME280;57190;47.918;8.112;2023-09-08T03:44:23;91249.59;;;15.57;88.71
69909;BME280;57190;47.918;8.112;2023-09-08T03:46:48;91252.22;;;15.63;88.85
69909;BME280;57190;47.918;8.112;2023-09-08T03:49:14;91245.69;;;15.69;89.73
69909;BME280;57190;47.918;8.112;2023-09-08T03:51:39;91242.50;;;15.67;89.77
69909;BME280;57190;47.918;8.112;2023-09-08T03:54:05;91245.47;;;15.65;89.78
69909;BME280;57190;47.918;8.112;2023-09-08T03:56:31;91243.28;;;15.67;90.22
69909;BME280;57190;47.918;8.112;2023-09-08T03:58:56;91242.72;;;15.70;90.31
69909;BME280;57190;47.918;8.112;2023-09-08T04:01:22;91251.78;;;15.75;90.45
69909;BME280;57190;47.918;8.112;2023-09-08T04:03:47;91240.75;;;15.76;90.79
69909;BME280;57190;47.918;8.112;2023-09-08T04:06:13;91246.41;;;15.75;90.42
69909;BME280;57190;47.918;8.112;2023-09-08T04:08:38;91248.59;;;15.72;90.54
69909;BME280;57190;47.918;8.112;2023-09-08T04:11:04;91244.47;;;15.80;91.14
69909;BME280;57190;47.918;8.112;2023-09-08T04:13:29;91243.63;;;15.85;91.32
69909;BME280;57190;47.918;8.112;2023-09-08T04:15:55;91248.22;;;15.84;91.15
69909;BME280;57190;47.918;8.112;2023-09-08T04:18:20;91247.53;;;15.74;90.53
69909;BME280;57190;47.918;8.112;2023-09-08T04:20:46;91253.03;;;15.63;90.60
69909;BME280;57190;47.918;8.112;2023-09-08T04:23:11;91255.81;;;15.53;90.64
69909;BME280;57190;47.918;8.112;2023-09-08T04:25:37;91250.84;;;15.41;90.41
69909;BME280;57190;47.918;8.112;2023-09-08T04:28:03;91259.31;;;15.29;90.30
69909;BME280;57190;47.918;8.112;2023-09-08T04:30:28;91255.81;;;15.29;90.21
69909;BME280;57190;47.918;8.112;2023-09-08T04:32:54;91256.44;;;15.20;89.41
69909;BME280;57190;47.918;8.112;2023-09-08T04:35:19;91259.50;;;15.14;89.13
69909;BME280;57190;47.918;8.112;2023-09-08T04:37:45;91258.75;;;15.08;88.89
69909;BME280;57190;47.918;8.112;2023-09-08T04:40:10;91258.75;;;15.08;88.98
69909;BME280;57190;47.918;8.112;2023-09-08T04:42:36;91258.50;;;15.04;88.60
69909;BME280;57190;47.918;8.112;2023-09-08T04:45:02;91259.88;;;15.02;88.79
69909;BME280;57190;47.918;8.112;2023-09-08T04:47:27;91263.38;;;15.02;88.77
69909;BME280;57190;47.918;8.112;2023-09-08T04:49:53;91263.88;;;15.04;89.29
69909;BME280;57190;47.918;8.112;2023-09-08T04:52:18;91270.81;;;15.11;88.88
69909;BME280;57190;47.918;8.112;2023-09-08T04:54:44;91267.50;;;15.19;89.61
69909;BME280;57190;47.918;8.112;2023-09-08T04:57:09;91270.38;;;15.28;89.92
69909;BME280;57190;47.918;8.112;2023-09-08T04:59:35;91266.88;;;15.27;89.70
69909;BME280;57190;47.918;8.112;2023-09-08T05:02:02;91265.50;;;15.30;90.40
69909;BME280;57190;47.918;8.112;2023-09-08T05:04:28;91267.69;;;15.28;89.41
69909;BME280;57190;47.918;8.112;2023-09-08T05:06:53;91270.41;;;15.22;89.89
69909;BME280;57190;47.918;8.112;2023-09-08T05:09:19;91273.91;;;15.23;89.49
69909;BME280;57190;47.918;8.112;2023-09-08T05:11:44;91277.94;;;15.20;89.96
69909;BME280;57190;47.918;8.112;2023-09-08T05:14:10;91278.19;;;15.24;90.21
69909;BME280;57190;47.918;8.112;2023-09-08T05:16:35;91273.06;;;15.28;90.37
69909;BME280;57190;47.918;8.112;2023-09-08T05:19:03;91273.78;;;15.33;90.37
69909;BME280;57190;47.918;8.112;2023-09-08T05:21:31;91275.34;;;15.39;90.75
69909;BME280;57190;47.918;8.112;2023-09-08T05:23:56;91279.91;;;15.39;90.73
69909;BME280;57190;47.918;8.112;2023-09-08T05:26:22;91278.53;;;15.41;90.86
69909;BME280;57190;47.918;8.112;2023-09-08T05:28:47;91278.75;;;15.45;90.41
69909;BME280;57190;47.918;8.112;2023-09-08T05:31:13;91276.53;;;15.52;90.74
69909;BME280;57190;47.918;8.112;2023-09-08T05:33:39;91277.78;;;15.60;90.58
69909;BME280;57190;47.918;8.112;2023-09-08T05:36:04;91282.31;;;15.65;90.86
69909;BME280;57190;47.918;8.112;2023-09-08T05:38:30;91280.69;;;15.64;90.32
69909;BME280;57190;47.918;8.112;2023-09-08T05:40:56;91284.47;;;15.63;90.24
69909;BME280;57190;47.918;8.112;2023-09-08T05:43:25;91287.34;;;15.71;90.87
69909;BME280;57190;47.918;8.112;2023-09-08T05:45:50;91284.00;;;15.80;90.68
69909;BME280;57190;47.918;8.112;2023-09-08T05:48:16;91288.47;;;15.90;90.96
69909;BME280;57190;47.918;8.112;2023-09-08T05:50:42;91287.53;;;15.99;90.90
69909;BME280;57190;47.918;8.112;2023-09-08T05:53:08;91282.09;;;16.05;90.91
69909;BME280;57190;47.918;8.112;2023-09-08T05:55:33;91284.66;;;16.15;91.15
69909;BME280;57190;47.918;8.112;2023-09-08T05:57:59;91285.88;;;16.23;90.70
69909;BME280;57190;47.918;8.112;2023-09-08T06:00:24;91283.13;;;16.28;90.86
69909;BME280;57190;47.918;8.112;2023-09-08T06:02:50;91294.41;;;16.30;90.17
69909;BME280;57190;47.918;8.112;2023-09-08T06:05:16;91278.69;;;16.37;90.51
69909;BME280;57190;47.918;8.112;2023-09-08T06:07:41;91284.22;;;16.46;90.52
69909;BME280;57190;47.918;8.112;2023-09-08T06:10:07;91285.94;;;16.56;90.36
69909;BME280;57190;47.918;8.112;2023-09-08T06:12:33;91289.06;;;16.63;90.14
69909;BME280;57190;47.918;8.112;2023-09-08T06:14:58;91281.44;;;16.70;89.99
69909;BME280;57190;47.918;8.112;2023-09-08T06:17:24;91279.94;;;16.78;89.81
69909;BME280;57190;47.918;8.112;2023-09-08T06:19:50;91284.75;;;16.81;89.58
69909;BME280;57190;47.918;8.112;2023-09-08T06:22:16;91292.91;;;16.76;88.91
69909;BME280;57190;47.918;8.112;2023-09-08T06:24:41;91289.50;;;16.70;88.86
69909;BME280;57190;47.918;8.112;2023-09-08T06:27:07;91295.06;;;16.60;88.39
69909;BME280;57190;47.918;8.112;2023-09-08T06:29:33;91289.44;;;16.56;88.32
69909;BME280;57190;47.918;8.112;2023-09-08T06:31:58;91297.75;;;16.60;87.90
69909;BME280;57190;47.918;8.112;2023-09-08T06:34:24;91287.97;;;16.64;88.02
69909;BME280;57190;47.918;8.112;2023-09-08T06:36:49;91287.59;;;16.71;87.40
69909;BME280;57190;47.918;8.112;2023-09-08T06:39:15;91291.81;;;16.77;87.68
69909;BME280;57190;47.918;8.112;2023-09-08T06:41:40;91295.44;;;16.86;87.32
69909;BME280;57190;47.918;8.112;2023-09-08T06:44:08;91289.09;;;16.96;87.66
69909;BME280;57190;47.918;8.112;2023-09-08T06:46:34;91293.81;;;17.04;87.41
69909;BME280;57190;47.918;8.112;2023-09-08T06:48:59;91296.34;;;17.15;87.78
69909;BME280;57190;47.918;8.112;2023-09-08T06:51:25;91295.06;;;17.26;87.36
69909;BME280;57190;47.918;8.112;2023-09-08T06:53:55;91292.47;;;17.35;87.10
69909;BME280;57190;47.918;8.112;2023-09-08T06:56:23;91287.47;;;17.42;86.86
69909;BME280;57190;47.918;8.112;2023-09-08T06:58:49;91299.88;;;17.43;87.00
69909;BME280;57190;47.918;8.112;2023-09-08T07:01:14;91293.50;;;17.53;86.95
69909;BME280;57190;47.918;8.112;2023-09-08T07:03:40;91299.00;;;17.62;87.34
69909;BME280;57190;47.918;8.112;2023-09-08T07:06:06;91291.50;;;17.72;86.86
69909;BME280;57190;47.918;8.112;2023-09-08T07:08:31;91294.00;;;17.83;86.42
69909;BME280;57190;47.918;8.112;2023-09-08T07:10:57;91295.22;;;17.90;86.46
69909;BME280;57190;47.918;8.112;2023-09-08T07:13:23;91289.91;;;17.99;86.68
69909;BME280;57190;47.918;8.112;2023-09-08T07:15:48;91297.94;;;18.04;86.73
69909;BME280;57190;47.918;8.112;2023-09-08T07:18:14;91296.72;;;18.11;86.85
69909;BME280;57190;47.918;8.112;2023-09-08T07:20:39;91296.78;;;18.19;87.19
69909;BME280;57190;47.918;8.112;2023-09-08T07:23:06;91291.97;;;18.30;86.67
69909;BME280;57190;47.918;8.112;2023-09-08T07:25:31;91287.63;;;18.43;86.62
69909;BME280;57190;47.918;8.112;2023-09-08T07:27:57;91292.03;;;18.53;86.15
69909;BME280;57190;47.918;8.112;2023-09-08T07:30:23;91285.25;;;18.64;86.03
69909;BME280;57190;47.918;8.112;2023-09-08T07:32:48;91291.44;;;18.79;85.94
69909;BME280;57190;47.918;8.112;2023-09-08T07:35:14;91282.47;;;18.92;85.76
69909;BME280;57190;47.918;8.112;2023-09-08T07:37:42;91289.53;;;19.02;86.42
69909;BME280;57190;47.918;8.112;2023-09-08T07:40:11;91290.13;;;19.22;86.51
69909;BME280;57190;47.918;8.112;2023-09-08T07:42:37;91293.09;;;19.34;86.25
69909;BME280;57190;47.918;8.112;2023-09-08T07:45:03;91293.91;;;19.43;85.78
69909;BME280;57190;47.918;8.112;2023-09-08T07:47:28;91294.13;;;19.56;85.55
69909;BME280;57190;47.918;8.112;2023-09-08T07:52:45;91295.25;;;19.86;84.33
69909;BME280;57190;47.918;8.112;2023-09-08T07:55:11;91300.72;;;20.04;83.85
69909;BME280;57190;47.918;8.112;2023-09-08T07:57:36;91296.59;;;20.15;83.41
69909;BME280;57190;47.918;8.112;2023-09-08T08:00:02;91303.47;;;20.21;83.40
69909;BME280;57190;47.918;8.112;2023-09-08T08:02:29;91296.56;;;20.82;81.64
69909;BME280;57190;47.918;8.112;2023-09-08T08:04:55;91311.44;;;21.49;78.74
69909;BME280;57190;47.918;8.112;2023-09-08T08:07:21;91305.56;;;21.39;79.27
69909;BME280;57190;47.918;8.112;2023-09-08T08:09:46;91299.72;;;21.19;79.37
69909;BME280;57190;47.918;8.112;2023-09-08T08:12:12;91301.97;;;21.17;77.55
69909;BME280;57190;47.918;8.112;2023-09-08T08:14:39;91293.78;;;21.34;73.16
69909;BME280;57190;47.918;8.112;2023-09-08T08:17:04;91296.94;;;21.36;72.05
69909;BME280;57190;47.918;8.112;2023-09-08T08:19:30;91302.03;;;21.47;70.50
69909;BME280;57190;47.918;8.112;2023-09-08T08:21:55;91307.69;;;21.98;68.62
69909;BME280;57190;47.918;8.112;2023-09-08T08:24:23;91303.28;;;22.14;66.68
69909;BME280;57190;47.918;8.112;2023-09-08T08:26:48;91303.50;;;22.01;66.91
69909;BME280;57190;47.918;8.112;2023-09-08T08:29:17;91307.81;;;22.02;66.55
69909;BME280;57190;47.918;8.112;2023-09-08T08:31:42;91310.72;;;22.26;66.23
69909;BME280;57190;47.918;8.112;2023-09-08T08:34:08;91304.31;;;22.31;65.65
69909;BME280;57190;47.918;8.112;2023-09-08T08:36:34;91303.16;;;22.41;64.93
69909;BME280;57190;47.918;8.112;2023-09-08T08:39:00;91305.38;;;22.39;64.24
69909;BME280;57190;47.918;8.112;2023-09-08T08:41:26;91300.56;;;22.44;64.67
69909;BME280;57190;47.918;8.112;2023-09-08T08:43:53;91307.44;;;22.72;63.72
69909;BME280;57190;47.918;8.112;2023-09-08T08:46:21;91312.34;;;22.79;63.54
69909;BME280;57190;47.918;8.112;2023-09-08T08:48:48;91302.13;;;22.97;62.88
69909;BME280;57190;47.918;8.112;2023-09-08T08:51:17;91297.41;;;23.06;61.98
69909;BME280;57190;47.918;8.112;2023-09-08T08:53:44;91301.19;;;23.14;61.09
69909;BME280;57190;47.918;8.112;2023-09-08T08:56:10;91305.69;;;23.09;61.48
69909;BME280;57190;47.918;8.112;2023-09-08T08:58:39;91304.91;;;23.09;61.23
69909;BME280;57190;47.918;8.112;2023-09-08T09:01:06;91305.38;;;23.11;60.77
69909;BME280;57190;47.918;8.112;2023-09-08T09:03:33;91301.31;;;23.17;61.04
69909;BME280;57190;47.918;8.112;2023-09-08T09:06:00;91304.91;;;23.30;61.55
69909;BME280;57190;47.918;8.112;2023-09-08T09:08:27;91305.38;;;23.32;60.54
69909;BME280;57190;47.918;8.112;2023-09-08T09:10:53;91302.06;;;23.27;59.75
69909;BME280;57190;47.918;8.112;2023-09-08T09:13:19;91303.31;;;23.29;59.88
69909;BME280;57190;47.918;8.112;2023-09-08T09:15:45;91308.53;;;23.34;61.27
69909;BME280;57190;47.918;8.112;2023-09-08T09:18:12;91302.91;;;23.39;59.79
69909;BME280;57190;47.918;8.112;2023-09-08T09:20:38;91308.34;;;23.39;59.28
69909;BME280;57190;47.918;8.112;2023-09-08T09:23:05;91305.06;;;23.46;60.16
69909;BME280;57190;47.918;8.112;2023-09-08T09:25:32;91299.78;;;23.50;59.61
69909;BME280;57190;47.918;8.112;2023-09-08T09:28:02;91294.88;;;23.55;59.61
69909;BME280;57190;47.918;8.112;2023-09-08T09:30:46;91300.56;;;23.50;57.43
69909;BME280;57190;47.918;8.112;2023-09-08T09:33:12;91303.75;;;23.52;58.29
69909;BME280;57190;47.918;8.112;2023-09-08T09:35:42;91299.91;;;23.53;58.00
69909;BME280;57190;47.918;8.112;2023-09-08T09:38:07;91308.06;;;23.53;58.89
69909;BME280;57190;47.918;8.112;2023-09-08T09:40:34;91304.63;;;23.44;58.48
69909;BME280;57190;47.918;8.112;2023-09-08T09:42:59;91304.16;;;23.42;58.38
69909;BME280;57190;47.918;8.112;2023-09-08T09:45:26;91299.44;;;23.51;58.93
69909;BME280;57190;47.918;8.112;2023-09-08T09:47:52;91300.03;;;23.57;58.42
69909;BME280;57190;47.918;8.112;2023-09-08T09:50:28;91305.91;;;23.59;57.67
69909;BME280;57190;47.918;8.112;2023-09-08T09:52:59;91296.72;;;23.51;57.75
69909;BME280;57190;47.918;8.112;2023-09-08T09:55:26;91303.53;;;23.58;59.30
69909;BME280;57190;47.918;8.112;2023-09-08T09:57:57;91291.50;;;23.59;58.32
69909;BME280;57190;47.918;8.112;2023-09-08T10:00:25;91298.78;;;23.54;58.41
69909;BME280;57190;47.918;8.112;2023-09-08T10:02:52;91293.56;;;23.62;59.29
69909;BME280;57190;47.918;8.112;2023-09-08T10:05:18;91294.28;;;23.71;59.56
69909;BME280;57190;47.918;8.112;2023-09-08T10:07:47;91293.81;;;23.69;58.57
69909;BME280;57190;47.918;8.112;2023-09-08T10:10:14;91292.22;;;23.68;59.00
69909;BME280;57190;47.918;8.112;2023-09-08T10:12:43;91292.69;;;23.70;59.94
69909;BME280;57190;47.918;8.112;2023-09-08T10:15:10;91288.47;;;23.73;59.53
69909;BME280;57190;47.918;8.112;2023-09-08T10:17:37;91290.84;;;23.62;60.45
69909;BME280;57190;47.918;8.112;2023-09-08T10:20:05;91288.00;;;23.70;59.21
69909;BME280;57190;47.918;8.112;2023-09-08T10:22:38;91287.78;;;23.76;58.72
69909;BME280;57190;47.918;8.112;2023-09-08T10:25:07;91298.13;;;23.82;59.67
69909;BME280;57190;47.918;8.112;2023-09-08T10:27:34;91289.19;;;23.82;59.40
69909;BME280;57190;47.918;8.112;2023-09-08T10:30:02;91295.88;;;23.84;59.00
69909;BME280;57190;47.918;8.112;2023-09-08T10:32:30;91296.78;;;23.89;59.35
69909;BME280;57190;47.918;8.112;2023-09-08T10:34:57;91292.03;;;23.98;59.55
69909;BME280;57190;47.918;8.112;2023-09-08T10:37:25;91297.59;;;24.01;59.39
69909;BME280;57190;47.918;8.112;2023-09-08T10:39:54;91288.66;;;24.01;58.94
69909;BME280;57190;47.918;8.112;2023-09-08T10:42:24;91289.78;;;24.00;58.03
69909;BME280;57190;47.918;8.112;2023-09-08T10:44:59;91289.00;;;23.99;57.87
69909;BME280;57190;47.918;8.112;2023-09-08T10:47:33;91288.66;;;24.01;57.19
69909;BME280;57190;47.918;8.112;2023-09-08T10:50:05;91287.63;;;24.06;57.78
69909;BME280;57190;47.918;8.112;2023-09-08T10:52:30;91290.59;;;24.13;57.88
69909;BME280;57190;47.918;8.112;2023-09-08T10:54:58;91279.81;;;24.16;58.18
69909;BME280;57190;47.918;8.112;2023-09-08T10:57:25;91288.53;;;24.22;58.70
69909;BME280;57190;47.918;8.112;2023-09-08T10:59:55;91297.28;;;24.15;57.67
69909;BME280;57190;47.918;8.112;2023-09-08T11:02:38;91290.72;;;24.04;57.56
69909;BME280;57190;47.918;8.112;2023-09-08T11:05:08;91286.28;;;23.99;57.64
69909;BME280;57190;47.918;8.112;2023-09-08T11:07:37;91284.81;;;24.02;57.91
69909;BME280;57190;47.918;8.112;2023-09-08T11:10:04;91290.81;;;24.20;58.27
69909;BME280;57190;47.918;8.112;2023-09-08T11:12:30;91284.22;;;24.21;57.63
69909;BME280;57190;47.918;8.112;2023-09-08T11:14:57;91286.50;;;24.19;58.14
69909;BME280;57190;47.918;8.112;2023-09-08T11:17:26;91289.00;;;24.12;57.86
69909;BME280;57190;47.918;8.112;2023-09-08T11:19:52;91278.34;;;24.07;57.60
69909;BME280;57190;47.918;8.112;2023-09-08T11:22:17;91285.69;;;24.06;57.94
69909;BME280;57190;47.918;8.112;2023-09-08T11:24:44;91291.03;;;24.02;57.86
69909;BME280;57190;47.918;8.112;2023-09-08T11:27:11;91287.06;;;24.00;58.35
69909;BME280;57190;47.918;8.112;2023-09-08T11:29:38;91289.91;;;24.04;58.60
69909;BME280;57190;47.918;8.112;2023-09-08T11:32:08;91290.00;;;24.07;58.50
69909;BME280;57190;47.918;8.112;2023-09-08T11:34:35;91287.28;;;24.07;58.29
69909;BME280;57190;47.918;8.112;2023-09-08T11:37:08;91292.84;;;24.11;58.43
69909;BME280;57190;47.918;8.112;2023-09-08T11:39:37;91291.50;;;24.05;57.84
69909;BME280;57190;47.918;8.112;2023-09-08T11:42:03;91295.56;;;24.11;57.85
69909;BME280;57190;47.918;8.112;2023-09-08T11:44:28;91285.50;;;24.11;57.56
69909;BME280;57190;47.918;8.112;2023-09-08T11:46:54;91283.09;;;24.10;57.12
69909;BME280;57190;47.918;8.112;2023-09-08T11:49:20;91281.28;;;24.14;57.71
69909;BME280;57190;47.918;8.112;2023-09-08T11:51:48;91281.75;;;24.16;58.22
69909;BME280;57190;47.918;8.112;2023-09-08T11:54:14;91281.50;;;24.21;58.74
69909;BME280;57190;47.918;8.112;2023-09-08T11:56:40;91281.63;;;24.25;57.76
69909;BME280;57190;47.918;8.112;2023-09-08T11:59:07;91279.81;;;24.29;58.43
69909;BME280;57190;47.918;8.112;2023-09-08T12:01:33;91281.72;;;24.28;58.90
69909;BME280;57190;47.918;8.112;2023-09-08T12:03:59;91288.41;;;24.31;58.46
69909;BME280;57190;47.918;8.112;2023-09-08T12:06:27;91286.84;;;24.30;57.78
69909;BME280;57190;47.918;8.112;2023-09-08T12:08:55;91277.97;;;24.33;59.18
69909;BME280;57190;47.918;8.112;2023-09-08T12:11:21;91276.38;;;24.32;58.42
69909;BME280;57190;47.918;8.112;2023-09-08T12:13:47;91274.78;;;24.31;58.23
69909;BME280;57190;47.918;8.112;2023-09-08T12:16:19;91270.94;;;24.32;57.92
69909;BME280;57190;47.918;8.112;2023-09-08T12:18:45;91275.59;;;24.31;57.70
69909;BME280;57190;47.918;8.112;2023-09-08T12:21:11;91276.38;;;24.32;57.63
69909;BME280;57190;47.918;8.112;2023-09-08T12:23:54;91280.59;;;24.29;57.32
69909;BME280;57190;47.918;8.112;2023-09-08T12:26:21;91276.06;;;24.33;57.70
69909;BME280;57190;47.918;8.112;2023-09-08T12:28:47;91267.53;;;24.35;57.65
69909;BME280;57190;47.918;8.112;2023-09-08T12:31:13;91270.72;;;24.37;58.43
69909;BME280;57190;47.918;8.112;2023-09-08T12:33:39;91274.13;;;24.34;57.92
69909;BME280;57190;47.918;8.112;2023-09-08T12:36:30;91268.66;;;24.34;57.54
69909;BME280;57190;47.918;8.112;2023-09-08T12:38:56;91269.00;;;24.45;57.55
69909;BME280;57190;47.918;8.112;2023-09-08T12:41:22;91270.81;;;24.53;58.00
69909;BME280;57190;47.918;8.112;2023-09-08T12:43:47;91268.19;;;24.57;57.79
69909;BME280;57190;47.918;8.112;2023-09-08T12:46:13;91273.06;;;24.63;57.02
69909;BME280;57190;47.918;8.112;2023-09-08T12:48:41;91260.81;;;24.70;55.85
69909;BME280;57190;47.918;8.112;2023-09-08T12:51:07;91258.16;;;24.86;56.75
69909;BME280;57190;47.918;8.112;2023-09-08T12:53:34;91262.09;;;25.01;57.20
69909;BME280;57190;47.918;8.112;2023-09-08T12:56:03;91262.94;;;25.17;56.67
69909;BME280;57190;47.918;8.112;2023-09-08T12:58:28;91259.59;;;25.24;55.21
69909;BME280;57190;47.918;8.112;2023-09-08T13:00:54;91256.28;;;25.31;55.35